Hawks, Michigan
Current Conditions -  °F | °C
As of 7:15 PM on Friday 19 Dec 2014 (Local Time) from KPZQ Reporting Station
Clear Clear  
Wind Chill: 10°   Ceiling: Unl
Heat Index: 17°   Visibility: 10mi
Dew Point: 16°   Wind: 5mph
Humidity: 98%   Direction: 250°WSW
Pressure: 30.3"   Gusts: NA
Location:  45.3°N, 83.89°W
Report Text: KPZQ 200015Z AUTO 25004KT 10SM CLR M08/M09 A3030 RMK AO2 T10851087
Loading
Personal Weather Stations






























Interactive Weather Map New forecast layout! Learn more

10-Day Weather Forecast

Advertisements
Track Severe Weather on mobile